sensor_id;sensor_type;location;lat;lon;timestamp;pressure;altitude;pressure_sealevel;temperature;humidity
73151;BME280;61354;50.758;6.106;2023-08-01T00:00:31;97565.03;;;16.28;100.00
73151;BME280;61354;50.758;6.106;2023-08-01T00:02:58;97553.38;;;16.29;100.00
73151;BME280;61354;50.758;6.106;2023-08-01T00:05:24;97554.69;;;16.25;100.00
73151;BME280;61354;50.758;6.106;2023-08-01T00:07:52;97562.66;;;16.26;100.00
73151;BME280;61354;50.758;6.106;2023-08-01T00:10:17;97548.22;;;16.28;100.00
73151;BME280;61354;50.758;6.106;2023-08-01T00:12:43;97542.63;;;16.28;100.00
73151;BME280;61354;50.758;6.106;2023-08-01T00:15:09;97543.78;;;16.30;100.00
73151;BME280;61354;50.758;6.106;2023-08-01T00:17:35;97530.56;;;16.31;100.00
73151;BME280;61354;50.758;6.106;2023-08-01T00:20:03;97527.75;;;16.31;100.00
73151;BME280;61354;50.758;6.106;2023-08-01T00:22:29;97527.31;;;16.32;100.00
73151;BME280;61354;50.758;6.106;2023-08-01T00:24:55;97528.09;;;16.33;100.00
73151;BME280;61354;50.758;6.106;2023-08-01T00:27:21;97530.09;;;16.32;100.00
73151;BME280;61354;50.758;6.106;2023-08-01T00:29:46;97530.09;;;16.32;100.00
73151;BME280;61354;50.758;6.106;2023-08-01T00:32:12;97529.75;;;16.30;100.00
73151;BME280;61354;50.758;6.106;2023-08-01T00:34:37;97531.41;;;16.28;100.00
73151;BME280;61354;50.758;6.106;2023-08-01T00:37:04;97522.69;;;16.26;100.00
73151;BME280;61354;50.758;6.106;2023-08-01T00:39:30;97517.41;;;16.28;100.00
73151;BME280;61354;50.758;6.106;2023-08-01T00:41:55;97521.78;;;16.29;100.00
73151;BME280;61354;50.758;6.106;2023-08-01T00:44:21;97523.47;;;16.26;100.00
73151;BME280;61354;50.758;6.106;2023-08-01T00:46:47;97521.16;;;16.21;100.00
73151;BME280;61354;50.758;6.106;2023-08-01T00:49:14;97515.56;;;16.21;100.00
73151;BME280;61354;50.758;6.106;2023-08-01T00:51:39;97512.50;;;16.15;100.00
73151;BME280;61354;50.758;6.106;2023-08-01T00:54:06;97519.31;;;16.14;100.00
73151;BME280;61354;50.758;6.106;2023-08-01T00:56:31;97529.38;;;16.12;100.00
73151;BME280;61354;50.758;6.106;2023-08-01T00:58:57;97531.03;;;16.09;100.00
73151;BME280;61354;50.758;6.106;2023-08-01T01:01:23;97537.50;;;16.06;100.00
73151;BME280;61354;50.758;6.106;2023-08-01T01:03:48;97516.41;;;16.02;100.00
73151;BME280;61354;50.758;6.106;2023-08-01T01:06:24;97506.66;;;15.90;100.00
73151;BME280;61354;50.758;6.106;2023-08-01T01:08:50;97487.16;;;15.86;100.00
73151;BME280;61354;50.758;6.106;2023-08-01T01:11:15;97498.16;;;15.77;100.00
73151;BME280;61354;50.758;6.106;2023-08-01T01:13:41;97498.94;;;15.78;100.00
73151;BME280;61354;50.758;6.106;2023-08-01T01:16:07;97506.25;;;15.72;100.00
73151;BME280;61354;50.758;6.106;2023-08-01T01:18:32;97500.81;;;15.64;100.00
73151;BME280;61354;50.758;6.106;2023-08-01T01:20:58;97508.09;;;15.58;100.00
73151;BME280;61354;50.758;6.106;2023-08-01T01:23:24;97512.03;;;15.41;100.00
73151;BME280;61354;50.758;6.106;2023-08-01T01:25:51;97517.50;;;15.48;100.00
73151;BME280;61354;50.758;6.106;2023-08-01T01:28:19;97519.59;;;15.44;100.00
73151;BME280;61354;50.758;6.106;2023-08-01T01:30:45;97520.50;;;15.37;100.00
73151;BME280;61354;50.758;6.106;2023-08-01T01:33:11;97524.72;;;15.26;100.00
73151;BME280;61354;50.758;6.106;2023-08-01T01:35:37;97522.47;;;15.17;100.00
73151;BME280;61354;50.758;6.106;2023-08-01T01:38:03;97509.72;;;15.16;100.00
73151;BME280;61354;50.758;6.106;2023-08-01T01:40:33;97521.47;;;15.07;100.00
73151;BME280;61354;50.758;6.106;2023-08-01T01:42:59;97518.75;;;15.04;100.00
73151;BME280;61354;50.758;6.106;2023-08-01T01:45:25;97518.22;;;14.89;100.00
73151;BME280;61354;50.758;6.106;2023-08-01T01:47:51;97521.44;;;14.87;100.00
73151;BME280;61354;50.758;6.106;2023-08-01T01:50:17;97518.34;;;14.82;100.00
73151;BME280;61354;50.758;6.106;2023-08-01T01:52:43;97519.13;;;14.82;100.00
73151;BME280;61354;50.758;6.106;2023-08-01T01:55:09;97517.84;;;14.87;100.00
73151;BME280;61354;50.758;6.106;2023-08-01T01:57:35;97520.28;;;14.85;100.00
73151;BME280;61354;50.758;6.106;2023-08-01T02:00:03;97516.03;;;14.77;100.00
73151;BME280;61354;50.758;6.106;2023-08-01T02:02:29;97513.16;;;14.80;100.00
73151;BME280;61354;50.758;6.106;2023-08-01T02:04:54;97519.25;;;14.75;100.00
73151;BME280;61354;50.758;6.106;2023-08-01T02:07:20;97512.75;;;14.82;100.00
73151;BME280;61354;50.758;6.106;2023-08-01T02:09:45;97512.25;;;14.87;100.00
73151;BME280;61354;50.758;6.106;2023-08-01T02:12:12;97504.00;;;14.80;100.00
73151;BME280;61354;50.758;6.106;2023-08-01T02:14:40;97519.38;;;14.68;100.00
73151;BME280;61354;50.758;6.106;2023-08-01T02:17:06;97520.03;;;14.76;100.00
73151;BME280;61354;50.758;6.106;2023-08-01T02:19:32;97514.09;;;14.74;100.00
73151;BME280;61354;50.758;6.106;2023-08-01T02:21:58;97510.13;;;14.71;100.00
73151;BME280;61354;50.758;6.106;2023-08-01T02:24:23;97521.19;;;14.78;100.00
73151;BME280;61354;50.758;6.106;2023-08-01T02:26:50;97512.88;;;14.75;100.00
73151;BME280;61354;50.758;6.106;2023-08-01T02:29:15;97509.28;;;14.74;100.00
73151;BME280;61354;50.758;6.106;2023-08-01T02:31:41;97517.63;;;14.78;100.00
73151;BME280;61354;50.758;6.106;2023-08-01T02:34:07;97507.66;;;14.77;100.00
73151;BME280;61354;50.758;6.106;2023-08-01T02:36:32;97506.94;;;14.73;100.00
73151;BME280;61354;50.758;6.106;2023-08-01T02:38:58;97519.78;;;14.66;100.00
73151;BME280;61354;50.758;6.106;2023-08-01T02:41:23;97521.00;;;14.65;100.00
73151;BME280;61354;50.758;6.106;2023-08-01T02:43:49;97528.84;;;14.74;100.00
73151;BME280;61354;50.758;6.106;2023-08-01T02:46:14;97537.00;;;14.65;100.00
73151;BME280;61354;50.758;6.106;2023-08-01T02:48:40;97524.31;;;14.60;100.00
73151;BME280;61354;50.758;6.106;2023-08-01T02:51:06;97533.81;;;14.63;100.00
73151;BME280;61354;50.758;6.106;2023-08-01T02:53:35;97541.00;;;14.64;100.00
73151;BME280;61354;50.758;6.106;2023-08-01T02:56:01;97544.19;;;14.62;100.00
73151;BME280;61354;50.758;6.106;2023-08-01T02:58:27;97545.66;;;14.71;100.00
73151;BME280;61354;50.758;6.106;2023-08-01T03:00:52;97534.97;;;14.65;100.00
73151;BME280;61354;50.758;6.106;2023-08-01T03:03:18;97539.00;;;14.64;100.00
73151;BME280;61354;50.758;6.106;2023-08-01T03:05:43;97542.53;;;14.69;100.00
73151;BME280;61354;50.758;6.106;2023-08-01T03:08:09;97542.56;;;14.65;100.00
73151;BME280;61354;50.758;6.106;2023-08-01T03:10:34;97553.06;;;14.57;100.00
73151;BME280;61354;50.758;6.106;2023-08-01T03:13:00;97544.19;;;14.62;100.00
73151;BME280;61354;50.758;6.106;2023-08-01T03:15:27;97546.22;;;14.62;100.00
73151;BME280;61354;50.758;6.106;2023-08-01T03:17:53;97543.06;;;14.60;100.00
73151;BME280;61354;50.758;6.106;2023-08-01T03:20:18;97563.03;;;14.58;100.00
73151;BME280;61354;50.758;6.106;2023-08-01T03:22:44;97556.13;;;14.66;100.00
73151;BME280;61354;50.758;6.106;2023-08-01T03:25:10;97551.84;;;14.58;100.00
73151;BME280;61354;50.758;6.106;2023-08-01T03:27:36;97543.53;;;14.55;100.00
73151;BME280;61354;50.758;6.106;2023-08-01T03:30:02;97547.00;;;14.62;100.00
73151;BME280;61354;50.758;6.106;2023-08-01T03:32:30;97547.47;;;14.57;100.00
73151;BME280;61354;50.758;6.106;2023-08-01T03:34:55;97561.44;;;14.57;100.00
73151;BME280;61354;50.758;6.106;2023-08-01T03:37:21;97550.72;;;14.56;100.00
73151;BME280;61354;50.758;6.106;2023-08-01T03:39:47;97549.25;;;14.44;100.00
73151;BME280;61354;50.758;6.106;2023-08-01T03:42:12;97555.19;;;14.46;100.00
73151;BME280;61354;50.758;6.106;2023-08-01T03:44:38;97557.31;;;14.38;100.00
73151;BME280;61354;50.758;6.106;2023-08-01T03:47:03;97563.59;;;14.46;100.00
73151;BME280;61354;50.758;6.106;2023-08-01T03:49:29;97556.16;;;14.36;100.00
73151;BME280;61354;50.758;6.106;2023-08-01T03:51:55;97566.84;;;14.41;100.00
73151;BME280;61354;50.758;6.106;2023-08-01T03:54:20;97567.13;;;14.50;100.00
73151;BME280;61354;50.758;6.106;2023-08-01T03:56:46;97576.31;;;14.47;100.00
73151;BME280;61354;50.758;6.106;2023-08-01T03:59:13;97574.13;;;14.35;100.00
73151;BME280;61354;50.758;6.106;2023-08-01T04:01:39;97570.19;;;14.32;100.00
73151;BME280;61354;50.758;6.106;2023-08-01T04:04:05;97584.09;;;14.36;100.00
73151;BME280;61354;50.758;6.106;2023-08-01T04:06:30;97581.41;;;14.29;100.00
73151;BME280;61354;50.758;6.106;2023-08-01T04:08:56;97586.94;;;14.32;100.00
73151;BME280;61354;50.758;6.106;2023-08-01T04:11:22;97584.56;;;14.31;100.00
73151;BME280;61354;50.758;6.106;2023-08-01T04:13:48;97582.97;;;14.30;100.00
73151;BME280;61354;50.758;6.106;2023-08-01T04:16:14;97587.81;;;14.26;100.00
73151;BME280;61354;50.758;6.106;2023-08-01T04:18:39;97591.78;;;14.28;100.00
73151;BME280;61354;50.758;6.106;2023-08-01T04:21:06;97584.72;;;14.20;100.00
73151;BME280;61354;50.758;6.106;2023-08-01T04:23:31;97584.66;;;14.24;100.00
73151;BME280;61354;50.758;6.106;2023-08-01T04:25:57;97587.50;;;14.20;100.00
73151;BME280;61354;50.758;6.106;2023-08-01T04:28:25;97585.22;;;14.11;100.00
73151;BME280;61354;50.758;6.106;2023-08-01T04:30:51;97596.78;;;14.10;100.00
73151;BME280;61354;50.758;6.106;2023-08-01T04:33:17;97594.44;;;14.08;100.00
73151;BME280;61354;50.758;6.106;2023-08-01T04:35:43;97586.44;;;14.10;100.00
73151;BME280;61354;50.758;6.106;2023-08-01T04:38:09;97596.13;;;14.02;100.00
73151;BME280;61354;50.758;6.106;2023-08-01T04:40:36;97592.94;;;14.00;100.00
73151;BME280;61354;50.758;6.106;2023-08-01T04:43:02;97596.00;;;14.09;100.00
73151;BME280;61354;50.758;6.106;2023-08-01T04:45:28;97597.22;;;14.08;100.00
73151;BME280;61354;50.758;6.106;2023-08-01T04:47:53;97595.97;;;14.13;100.00
73151;BME280;61354;50.758;6.106;2023-08-01T04:50:19;97593.66;;;14.08;100.00
73151;BME280;61354;50.758;6.106;2023-08-01T04:52:45;97597.22;;;14.08;100.00
73151;BME280;61354;50.758;6.106;2023-08-01T04:55:10;97588.03;;;14.11;100.00
73151;BME280;61354;50.758;6.106;2023-08-01T04:57:36;97586.72;;;14.20;100.00
73151;BME280;61354;50.758;6.106;2023-08-01T05:00:02;97591.16;;;14.13;100.00
73151;BME280;61354;50.758;6.106;2023-08-01T05:02:28;97600.06;;;14.05;100.00
73151;BME280;61354;50.758;6.106;2023-08-01T05:04:54;97593.97;;;14.13;100.00
73151;BME280;61354;50.758;6.106;2023-08-01T05:07:19;97594.38;;;14.12;100.00
73151;BME280;61354;50.758;6.106;2023-08-01T05:09:45;97588.69;;;14.23;100.00
73151;BME280;61354;50.758;6.106;2023-08-01T05:12:10;97593.88;;;14.21;100.00
73151;BME280;61354;50.758;6.106;2023-08-01T05:14:36;97591.97;;;14.14;100.00
73151;BME280;61354;50.758;6.106;2023-08-01T05:17:02;97582.44;;;14.11;100.00
73151;BME280;61354;50.758;6.106;2023-08-01T05:19:27;97585.22;;;14.11;100.00
73151;BME280;61354;50.758;6.106;2023-08-01T05:21:53;97602.75;;;14.12;100.00
73151;BME280;61354;50.758;6.106;2023-08-01T05:24:18;97598.44;;;14.07;100.00
73151;BME280;61354;50.758;6.106;2023-08-01T05:26:44;97598.91;;;14.02;100.00
73151;BME280;61354;50.758;6.106;2023-08-01T05:29:09;97592.38;;;14.12;100.00
73151;BME280;61354;50.758;6.106;2023-08-01T05:31:35;97606.81;;;14.07;100.00
73151;BME280;61354;50.758;6.106;2023-08-01T05:34:01;97603.06;;;14.17;100.00
73151;BME280;61354;50.758;6.106;2023-08-01T05:36:26;97611.44;;;14.17;100.00
73151;BME280;61354;50.758;6.106;2023-08-01T05:38:52;97599.47;;;14.21;100.00
73151;BME280;61354;50.758;6.106;2023-08-01T05:41:17;97602.94;;;14.28;100.00
73151;BME280;61354;50.758;6.106;2023-08-01T05:43:43;97610.44;;;14.35;100.00
73151;BME280;61354;50.758;6.106;2023-08-01T05:46:08;97605.22;;;14.37;100.00
73151;BME280;61354;50.758;6.106;2023-08-01T05:48:34;97613.16;;;14.38;100.00
73151;BME280;61354;50.758;6.106;2023-08-01T05:50:59;97607.03;;;14.47;100.00
73151;BME280;61354;50.758;6.106;2023-08-01T05:53:25;97625.81;;;14.47;100.00
73151;BME280;61354;50.758;6.106;2023-08-01T05:55:52;97627.41;;;14.48;100.00
73151;BME280;61354;50.758;6.106;2023-08-01T05:58:18;97611.00;;;14.53;100.00
73151;BME280;61354;50.758;6.106;2023-08-01T06:00:43;97615.41;;;14.51;100.00
73151;BME280;61354;50.758;6.106;2023-08-01T06:03:09;97620.94;;;14.54;100.00
73151;BME280;61354;50.758;6.106;2023-08-01T06:05:35;97621.00;;;14.47;100.00
73151;BME280;61354;50.758;6.106;2023-08-01T06:08:01;97625.78;;;14.50;100.00
73151;BME280;61354;50.758;6.106;2023-08-01T06:10:27;97622.72;;;14.41;100.00
73151;BME280;61354;50.758;6.106;2023-08-01T06:12:52;97621.00;;;14.51;100.00
73151;BME280;61354;50.758;6.106;2023-08-01T06:15:18;97619.09;;;14.44;100.00
73151;BME280;61354;50.758;6.106;2023-08-01T06:17:43;97629.38;;;14.20;100.00
73151;BME280;61354;50.758;6.106;2023-08-01T06:20:09;97626.72;;;14.40;100.00
73151;BME280;61354;50.758;6.106;2023-08-01T06:22:35;97625.59;;;14.34;100.00
73151;BME280;61354;50.758;6.106;2023-08-01T06:25:00;97634.00;;;14.30;100.00
73151;BME280;61354;50.758;6.106;2023-08-01T06:27:26;97633.13;;;14.37;100.00
73151;BME280;61354;50.758;6.106;2023-08-01T06:29:52;97640.69;;;14.40;100.00
73151;BME280;61354;50.758;6.106;2023-08-01T06:32:17;97628.38;;;14.34;100.00
73151;BME280;61354;50.758;6.106;2023-08-01T06:34:43;97632.72;;;14.38;100.00
73151;BME280;61354;50.758;6.106;2023-08-01T06:37:08;97640.22;;;14.45;100.00
73151;BME280;61354;50.758;6.106;2023-08-01T06:39:35;97636.19;;;14.46;100.00
73151;BME280;61354;50.758;6.106;2023-08-01T06:42:01;97630.50;;;14.57;100.00
73151;BME280;61354;50.758;6.106;2023-08-01T06:44:26;97644.78;;;14.62;100.00
73151;BME280;61354;50.758;6.106;2023-08-01T06:46:52;97649.63;;;14.58;100.00
73151;BME280;61354;50.758;6.106;2023-08-01T06:49:17;97643.97;;;14.62;100.00
73151;BME280;61354;50.758;6.106;2023-08-01T06:51:43;97655.06;;;14.69;100.00
73151;BME280;61354;50.758;6.106;2023-08-01T06:54:08;97653.50;;;14.68;100.00
73151;BME280;61354;50.758;6.106;2023-08-01T06:56:34;97660.66;;;14.69;100.00
73151;BME280;61354;50.758;6.106;2023-08-01T06:58:59;97661.34;;;14.77;100.00
73151;BME280;61354;50.758;6.106;2023-08-01T07:01:25;97662.31;;;14.63;100.00
73151;BME280;61354;50.758;6.106;2023-08-01T07:03:51;97665.28;;;14.52;100.00
73151;BME280;61354;50.758;6.106;2023-08-01T07:06:17;97676.72;;;14.61;100.00
73151;BME280;61354;50.758;6.106;2023-08-01T07:08:43;97673.94;;;14.61;100.00
73151;BME280;61354;50.758;6.106;2023-08-01T07:11:09;97680.88;;;14.46;100.00
73151;BME280;61354;50.758;6.106;2023-08-01T07:13:34;97679.25;;;14.52;100.00
73151;BME280;61354;50.758;6.106;2023-08-01T07:16:00;97673.66;;;14.52;100.00
73151;BME280;61354;50.758;6.106;2023-08-01T07:18:26;97676.72;;;14.61;100.00
73151;BME280;61354;50.758;6.106;2023-08-01T07:21:02;97676.63;;;14.69;100.00
73151;BME280;61354;50.758;6.106;2023-08-01T07:23:27;97676.50;;;14.76;100.00
73151;BME280;61354;50.758;6.106;2023-08-01T07:25:53;97682.03;;;14.79;100.00
73151;BME280;61354;50.758;6.106;2023-08-01T07:28:19;97687.16;;;14.84;100.00
73151;BME280;61354;50.758;6.106;2023-08-01T07:30:44;97686.50;;;14.77;100.00
73151;BME280;61354;50.758;6.106;2023-08-01T07:33:10;97683.00;;;14.96;100.00
73151;BME280;61354;50.758;6.106;2023-08-01T07:35:35;97677.88;;;14.91;100.00
73151;BME280;61354;50.758;6.106;2023-08-01T07:38:01;97686.53;;;15.00;100.00
73151;BME280;61354;50.758;6.106;2023-08-01T07:40:27;97682.34;;;15.12;100.00
73151;BME280;61354;50.758;6.106;2023-08-01T07:42:52;97695.97;;;15.33;100.00
73151;BME280;61354;50.758;6.106;2023-08-01T07:45:18;97691.91;;;15.14;100.00
73151;BME280;61354;50.758;6.106;2023-08-01T07:47:44;97691.78;;;15.22;100.00
73151;BME280;61354;50.758;6.106;2023-08-01T07:50:10;97698.34;;;15.11;100.00
73151;BME280;61354;50.758;6.106;2023-08-01T07:52:36;97706.03;;;15.31;100.00
73151;BME280;61354;50.758;6.106;2023-08-01T07:55:02;97711.47;;;15.38;100.00
73151;BME280;61354;50.758;6.106;2023-08-01T07:57:27;97710.75;;;15.34;100.00
73151;BME280;61354;50.758;6.106;2023-08-01T07:59:53;97704.59;;;15.42;100.00
73151;BME280;61354;50.758;6.106;2023-08-01T08:02:21;97706.75;;;15.35;100.00
73151;BME280;61354;50.758;6.106;2023-08-01T08:04:47;97709.22;;;15.29;100.00
73151;BME280;61354;50.758;6.106;2023-08-01T08:07:13;97711.78;;;15.20;100.00
73151;BME280;61354;50.758;6.106;2023-08-01T08:09:39;97712.22;;;15.19;100.00
73151;BME280;61354;50.758;6.106;2023-08-01T08:12:05;97708.53;;;15.22;100.00
73151;BME280;61354;50.758;6.106;2023-08-01T08:14:30;97706.56;;;15.22;100.00
73151;BME280;61354;50.758;6.106;2023-08-01T08:16:56;97700.91;;;15.26;100.00
73151;BME280;61354;50.758;6.106;2023-08-01T08:19:21;97714.88;;;15.26;100.00
73151;BME280;61354;50.758;6.106;2023-08-01T08:21:49;97711.19;;;15.32;100.00
73151;BME280;61354;50.758;6.106;2023-08-01T08:24:15;97715.38;;;15.44;100.00
73151;BME280;61354;50.758;6.106;2023-08-01T08:26:40;97703.09;;;15.61;100.00
73151;BME280;61354;50.758;6.106;2023-08-01T08:29:06;97702.00;;;15.79;100.00
73151;BME280;61354;50.758;6.106;2023-08-01T08:31:32;97709.00;;;15.90;100.00
73151;BME280;61354;50.758;6.106;2023-08-01T08:33:57;97707.50;;;15.86;100.00
73151;BME280;61354;50.758;6.106;2023-08-01T08:36:23;97711.34;;;15.92;100.00
73151;BME280;61354;50.758;6.106;2023-08-01T08:38:48;97705.50;;;16.06;100.00
73151;BME280;61354;50.758;6.106;2023-08-01T08:41:20;97703.84;;;16.09;100.00
73151;BME280;61354;50.758;6.106;2023-08-01T08:43:47;97701.13;;;16.25;100.00
73151;BME280;61354;50.758;6.106;2023-08-01T08:46:15;97715.25;;;16.38;100.00
73151;BME280;61354;50.758;6.106;2023-08-01T08:48:41;97706.00;;;16.21;100.00
73151;BME280;61354;50.758;6.106;2023-08-01T08:51:08;97712.41;;;16.22;100.00
73151;BME280;61354;50.758;6.106;2023-08-01T08:53:35;97706.84;;;16.38;100.00
73151;BME280;61354;50.758;6.106;2023-08-01T08:56:02;97708.84;;;16.57;100.00
73151;BME280;61354;50.758;6.106;2023-08-01T08:58:31;97698.31;;;16.45;100.00
73151;BME280;61354;50.758;6.106;2023-08-01T09:00:59;97702.47;;;16.57;100.00
73151;BME280;61354;50.758;6.106;2023-08-01T09:03:26;97720.66;;;16.49;100.00
73151;BME280;61354;50.758;6.106;2023-08-01T09:05:57;97721.56;;;16.62;100.00
73151;BME280;61354;50.758;6.106;2023-08-01T09:08:27;97717.72;;;16.76;100.00
73151;BME280;61354;50.758;6.106;2023-08-01T09:10:54;97718.63;;;16.89;100.00
73151;BME280;61354;50.758;6.106;2023-08-01T09:13:19;97709.34;;;16.92;100.00
73151;BME280;61354;50.758;6.106;2023-08-01T09:15:46;97715.38;;;16.90;100.00
73151;BME280;61354;50.758;6.106;2023-08-01T09:18:12;97716.97;;;16.72;100.00
73151;BME280;61354;50.758;6.106;2023-08-01T09:20:46;97721.75;;;16.71;100.00
73151;BME280;61354;50.758;6.106;2023-08-01T09:23:12;97708.28;;;16.46;100.00
73151;BME280;61354;50.758;6.106;2023-08-01T09:25:38;97727.84;;;16.30;100.00
73151;BME280;61354;50.758;6.106;2023-08-01T09:28:21;97734.22;;;16.10;100.00
73151;BME280;61354;50.758;6.106;2023-08-01T09:30:54;97720.16;;;16.34;100.00
73151;BME280;61354;50.758;6.106;2023-08-01T09:33:21;97726.03;;;16.59;100.00
73151;BME280;61354;50.758;6.106;2023-08-01T09:35:49;97730.63;;;16.70;100.00
73151;BME280;61354;50.758;6.106;2023-08-01T09:38:15;97728.59;;;16.70;100.00
73151;BME280;61354;50.758;6.106;2023-08-01T09:40:43;97730.69;;;16.66;100.00
73151;BME280;61354;50.758;6.106;2023-08-01T09:43:10;97724.31;;;16.65;100.00
73151;BME280;61354;50.758;6.106;2023-08-01T09:45:36;97727.25;;;16.78;100.00
73151;BME280;61354;50.758;6.106;2023-08-01T09:48:02;97726.75;;;16.63;100.00
73151;BME280;61354;50.758;6.106;2023-08-01T09:50:28;97725.00;;;16.70;100.00
73151;BME280;61354;50.758;6.106;2023-08-01T09:52:54;97724.75;;;16.84;100.00
73151;BME280;61354;50.758;6.106;2023-08-01T09:55:45;97736.34;;;17.02;100.00
73151;BME280;61354;50.758;6.106;2023-08-01T10:01:10;97723.56;;;17.01;100.00
73151;BME280;61354;50.758;6.106;2023-08-01T10:03:36;97731.44;;;17.06;100.00
73151;BME280;61354;50.758;6.106;2023-08-01T10:06:02;97727.22;;;16.98;100.00
73151;BME280;61354;50.758;6.106;2023-08-01T10:08:29;97726.41;;;16.81;100.00
73151;BME280;61354;50.758;6.106;2023-08-01T10:11:09;97740.25;;;16.49;100.00
73151;BME280;61354;50.758;6.106;2023-08-01T10:13:36;97731.06;;;16.48;100.00
73151;BME280;61354;50.758;6.106;2023-08-01T10:16:02;97727.69;;;16.57;100.00
73151;BME280;61354;50.758;6.106;2023-08-01T10:18:29;97731.47;;;16.66;100.00
73151;BME280;61354;50.758;6.106;2023-08-01T10:20:55;97725.59;;;16.81;100.00
73151;BME280;61354;50.758;6.106;2023-08-01T10:23:22;97726.31;;;16.85;100.00
73151;BME280;61354;50.758;6.106;2023-08-01T10:25:49;97722.50;;;17.11;100.00
73151;BME280;61354;50.758;6.106;2023-08-01T10:28:14;97720.00;;;17.17;100.00
73151;BME280;61354;50.758;6.106;2023-08-01T10:30:40;97718.75;;;17.34;100.00
73151;BME280;61354;50.758;6.106;2023-08-01T10:33:06;97715.59;;;17.65;100.00
73151;BME280;61354;50.758;6.106;2023-08-01T10:35:44;97720.06;;;17.62;100.00
73151;BME280;61354;50.758;6.106;2023-08-01T10:38:12;97719.38;;;17.42;100.00
73151;BME280;61354;50.758;6.106;2023-08-01T10:40:40;97724.53;;;17.44;100.00
73151;BME280;61354;50.758;6.106;2023-08-01T10:43:19;97732.88;;;17.31;100.00
73151;BME280;61354;50.758;6.106;2023-08-01T10:45:45;97732.75;;;17.02;100.00
73151;BME280;61354;50.758;6.106;2023-08-01T10:48:11;97731.66;;;16.96;100.00
73151;BME280;61354;50.758;6.106;2023-08-01T10:50:54;97727.78;;;17.09;100.00
73151;BME280;61354;50.758;6.106;2023-08-01T10:53:20;97735.41;;;17.25;100.00
73151;BME280;61354;50.758;6.106;2023-08-01T10:55:46;97737.53;;;17.21;100.00
73151;BME280;61354;50.758;6.106;2023-08-01T10:58:43;97733.75;;;17.28;100.00
73151;BME280;61354;50.758;6.106;2023-08-01T11:01:08;97722.88;;;17.62;100.00
73151;BME280;61354;50.758;6.106;2023-08-01T11:03:39;97740.63;;;17.76;100.00
73151;BME280;61354;50.758;6.106;2023-08-01T11:06:05;97732.91;;;17.80;100.00
73151;BME280;61354;50.758;6.106;2023-08-01T11:08:40;97738.13;;;17.45;100.00
73151;BME280;61354;50.758;6.106;2023-08-01T11:11:10;97750.25;;;17.58;100.00
73151;BME280;61354;50.758;6.106;2023-08-01T11:13:36;97738.59;;;17.76;100.00
73151;BME280;61354;50.758;6.106;2023-08-01T11:16:03;97745.69;;;17.81;100.00
73151;BME280;61354;50.758;6.106;2023-08-01T11:18:30;97745.34;;;17.79;100.00
73151;BME280;61354;50.758;6.106;2023-08-01T11:20:56;97749.44;;;17.91;98.87
73151;BME280;61354;50.758;6.106;2023-08-01T11:23:29;97753.00;;;18.07;100.00
73151;BME280;61354;50.758;6.106;2023-08-01T11:25:55;97755.69;;;17.82;97.45
73151;BME280;61354;50.758;6.106;2023-08-01T11:28:21;97761.91;;;17.57;97.01
73151;BME280;61354;50.758;6.106;2023-08-01T11:30:48;97769.38;;;17.63;99.72
73151;BME280;61354;50.758;6.106;2023-08-01T11:33:20;97772.50;;;17.65;98.46
73151;BME280;61354;50.758;6.106;2023-08-01T11:35:50;97768.69;;;17.76;99.59
73151;BME280;61354;50.758;6.106;2023-08-01T11:38:17;97780.59;;;17.63;100.00
73151;BME280;61354;50.758;6.106;2023-08-01T11:40:43;97787.00;;;17.64;100.00
73151;BME280;61354;50.758;6.106;2023-08-01T11:43:09;97777.00;;;17.63;100.00
73151;BME280;61354;50.758;6.106;2023-08-01T11:45:34;97782.44;;;17.70;100.00
73151;BME280;61354;50.758;6.106;2023-08-01T11:48:01;97779.03;;;17.46;100.00
73151;BME280;61354;50.758;6.106;2023-08-01T11:50:27;97786.53;;;17.33;99.94
73151;BME280;61354;50.758;6.106;2023-08-01T11:52:53;97777.00;;;17.47;100.00
73151;BME280;61354;50.758;6.106;2023-08-01T11:55:36;97784.53;;;17.66;100.00
73151;BME280;61354;50.758;6.106;2023-08-01T11:58:03;97789.97;;;17.73;100.00
73151;BME280;61354;50.758;6.106;2023-08-01T12:00:30;97783.75;;;17.65;96.56
73151;BME280;61354;50.758;6.106;2023-08-01T12:03:06;97786.22;;;17.63;95.61
73151;BME280;61354;50.758;6.106;2023-08-01T12:05:32;97781.84;;;17.79;95.58
73151;BME280;61354;50.758;6.106;2023-08-01T12:08:08;97776.03;;;17.86;94.66
73151;BME280;61354;50.758;6.106;2023-08-01T12:10:42;97781.84;;;17.79;91.74
73151;BME280;61354;50.758;6.106;2023-08-01T12:15:48;97780.78;;;17.89;91.56
73151;BME280;61354;50.758;6.106;2023-08-01T12:18:25;97777.38;;;17.81;91.83
73151;BME280;61354;50.758;6.106;2023-08-01T12:20:51;97785.88;;;17.94;92.91
73151;BME280;61354;50.758;6.106;2023-08-01T12:23:17;97779.19;;;18.21;95.59
73151;BME280;61354;50.758;6.106;2023-08-01T12:25:43;97771.16;;;18.48;95.44
73151;BME280;61354;50.758;6.106;2023-08-01T12:28:09;97783.41;;;18.42;91.69
73151;BME280;61354;50.758;6.106;2023-08-01T12:30:35;97785.53;;;18.67;95.08
73151;BME280;61354;50.758;6.106;2023-08-01T12:33:00;97782.44;;;18.90;97.19
73151;BME280;61354;50.758;6.106;2023-08-01T12:35:26;97781.09;;;18.82;87.30
73151;BME280;61354;50.758;6.106;2023-08-01T12:37:53;97793.28;;;18.62;84.64
73151;BME280;61354;50.758;6.106;2023-08-01T12:40:19;97783.31;;;18.74;86.67
73151;BME280;61354;50.758;6.106;2023-08-01T12:42:46;97786.84;;;18.62;83.37
73151;BME280;61354;50.758;6.106;2023-08-01T12:45:12;97769.41;;;18.83;86.25
73151;BME280;61354;50.758;6.106;2023-08-01T12:47:37;97783.50;;;18.96;86.44
73151;BME280;61354;50.758;6.106;2023-08-01T12:50:03;97781.22;;;18.62;83.19
73151;BME280;61354;50.758;6.106;2023-08-01T12:52:29;97779.50;;;18.81;84.54